Time;durP1;ratioP1;P1;durP2;ratioP2;P2;SDS_P1;SDS_P2;PMS_P1;PMS_P2;Temp;Humidity;BMP_temperature;BMP_pressure;BME280_temperature;BME280_humidity;BME280_pressure;Samples;Min_cycle;Max_cycle;Signal;HPM_P1;HPM_P2
2021/12/13 05:15:23;;;;;;;28.27;14.48;;;;;;;-1.92;91.11;101072.13;5559398;32;322219;-86
2021/12/13 05:18:32;;;;;;;31.40;15.50;;;;;;;-1.92;91.11;101072.13;5549386;32;33950;-86
2021/12/13 05:21:44;;;;;;;29.98;15.45;;;;;;;-2.37;92.81;101081.03;5547535;32;34351;-86
2021/12/13 05:24:51;;;;;;;31.70;15.88;;;;;;;-2.44;93.54;101093.03;5549233;32;34103;-87
2021/12/13 05:28:14;;;;;;;27.60;15.15;;;;;;;-2.42;93.79;101090.47;5549014;32;34013;-86
2021/12/13 05:31:24;;;;;;;29.48;15.35;;;;;;;-2.40;93.99;101094.84;5548820;32;34217;-86
2021/12/13 05:34:36;;;;;;;27.92;14.18;;;;;;;-2.35;93.81;101101.00;5549608;32;33966;-86
2021/12/13 05:37:44;;;;;;;30.37;14.35;;;;;;;-2.37;94.04;101107.87;5549506;32;34058;-86
2021/12/13 05:40:46;;;;;;;28.65;14.18;;;;;;;-2.33;93.86;101107.09;5550645;32;33791;-86
2021/12/13 05:43:52;;;;;;;26.98;13.30;;;;;;;-2.34;93.96;101105.34;5550152;32;34188;-86
2021/12/13 05:46:57;;;;;;;30.90;16.20;;;;;;;-2.22;93.60;101112.44;5552846;32;34048;-86
2021/12/13 05:50:00;;;;;;;25.35;13.98;;;;;;;-2.38;94.27;101116.53;5551583;32;34067;-86
2021/12/13 05:53:15;;;;;;;26.85;14.02;;;;;;;-2.31;94.18;101107.13;5547582;32;34426;-86
2021/12/13 05:56:19;;;;;;;24.05;13.02;;;;;;;-2.35;93.85;101110.50;5548444;32;34175;-86
2021/12/13 05:59:26;;;;;;;26.77;13.90;;;;;;;-2.34;93.97;101120.94;5548372;32;34435;-86
2021/12/13 06:02:39;;;;;;;24.98;13.95;;;;;;;-2.07;93.46;101116.09;5547853;32;34181;-87
2021/12/13 06:05:51;;;;;;;26.15;13.18;;;;;;;-2.10;92.30;101111.75;5550662;32;33944;-87
2021/12/13 06:08:57;;;;;;;24.73;13.00;;;;;;;-2.20;92.16;101120.25;5558795;32;33661;-91
2021/12/13 06:12:06;;;;;;;25.58;13.62;;;;;;;-2.28;92.21;101116.69;5558405;32;33709;-88
2021/12/13 06:15:20;;;;;;;27.37;13.60;;;;;;;-2.19;92.63;101111.59;5566691;32;34189;-88
2021/12/13 06:18:32;;;;;;;24.87;13.70;;;;;;;-2.38;93.05;101120.84;5559672;32;33916;-86
2021/12/13 06:21:40;;;;;;;27.25;14.45;;;;;;;-2.35;93.83;101137.38;5557157;32;33712;-86
2021/12/13 06:24:58;;;;;;;27.02;14.52;;;;;;;-2.43;94.40;101138.97;5542652;32;34230;-86
2021/12/13 06:28:01;;;;;;;28.52;14.25;;;;;;;-2.41;94.41;101137.28;5546786;32;34104;-87
2021/12/13 06:31:09;;;;;;;29.08;14.48;;;;;;;-2.34;94.37;101135.63;5547127;32;33930;-87
2021/12/13 06:34:16;;;;;;;28.80;15.57;;;;;;;-2.19;93.99;101140.19;5542654;32;34268;-87
2021/12/13 06:37:30;;;;;;;29.37;16.10;;;;;;;-2.31;94.58;101143.50;5531948;32;33533;-87
2021/12/13 06:40:33;;;;;;;31.35;16.05;;;;;;;-2.34;95.10;101140.84;5533224;32;33944;-87
2021/12/13 06:43:41;;;;;;;29.20;16.77;;;;;;;-2.31;95.32;101143.50;5532013;32;34008;-87
2021/12/13 06:46:51;;;;;;;30.58;16.10;;;;;;;-2.26;95.43;101143.56;5535400;32;34251;-88
2021/12/13 06:49:58;;;;;;;30.20;15.77;;;;;;;-2.34;95.96;101152.13;5547001;32;34666;-86
2021/12/13 06:53:15;;;;;;;32.60;16.52;;;;;;;-2.14;95.45;101150.66;5571285;32;33833;-85
2021/12/13 06:56:30;;;;;;;32.85;16.48;;;;;;;-2.19;95.61;101156.69;5571082;32;34534;-86
2021/12/13 06:59:36;;;;;;;31.33;17.12;;;;;;;-2.16;95.88;101153.25;5556084;32;34106;-90
2021/12/13 07:02:45;;;;;;;33.35;16.62;;;;;;;-2.10;95.52;101142.97;5557159;32;34231;-92
2021/12/13 07:05:53;;;;;;;30.95;17.02;;;;;;;-2.05;95.37;101143.00;5551969;32;33986;-88
2021/12/13 07:09:16;;;;;;;31.17;15.85;;;;;;;-1.96;94.82;101156.13;5551044;32;33417;-88
2021/12/13 07:12:21;;;;;;;33.30;16.37;;;;;;;-1.89;94.51;101149.31;5533983;32;34896;-88
2021/12/13 07:15:56;;;;;;;29.83;16.98;;;;;;;-1.95;94.74;101146.63;5548746;32;33640;-88
2021/12/13 07:19:18;;;;;;;34.63;17.42;;;;;;;-1.92;94.67;101152.75;5545472;32;33905;-88
2021/12/13 07:22:25;;;;;;;36.17;17.52;;;;;;;-1.88;94.71;101156.25;5539945;32;33912;-87
2021/12/13 07:25:36;;;;;;;28.85;16.42;;;;;;;-1.80;94.40;101154.63;5539419;32;34287;-87
2021/12/13 07:28:40;;;;;;;39.75;17.65;;;;;;;-1.78;94.21;101154.66;5530923;32;33731;-87
2021/12/13 07:31:59;;;;;;;33.42;16.75;;;;;;;-1.64;93.75;101160.06;5541106;32;34548;-87
2021/12/13 07:35:13;;;;;;;33.50;16.52;;;;;;;-1.67;94.04;101166.09;5543770;32;34344;-86
2021/12/13 07:38:17;;;;;;;29.45;16.17;;;;;;;-1.60;93.85;101171.38;5546134;32;33627;-86
2021/12/13 07:41:20;;;;;;;31.20;17.73;;;;;;;-1.44;93.15;101162.03;5553989;32;33824;-86
2021/12/13 07:44:40;;;;;;;35.83;17.58;;;;;;;-1.30;92.45;101173.50;5552326;32;34864;-89
2021/12/13 07:47:44;;;;;;;40.47;16.70;;;;;;;-1.32;92.51;101175.19;5549410;32;34939;-87
2021/12/13 07:51:03;;;;;;;37.13;18.48;;;;;;;-1.23;91.75;101183.13;5541544;32;34161;-87
2021/12/13 07:54:13;;;;;;;36.72;18.27;;;;;;;-1.28;91.74;101187.41;5534595;32;34015;-85
2021/12/13 07:57:28;;;;;;;33.58;17.12;;;;;;;-1.40;91.38;101200.28;5550344;32;34074;-85
2021/12/13 08:00:36;;;;;;;37.13;17.40;;;;;;;-1.57;91.58;101193.09;5544077;32;34230;-84
2021/12/13 08:03:46;;;;;;;32.85;17.35;;;;;;;-1.69;91.97;101188.63;5545308;32;34227;-84
2021/12/13 08:06:55;;;;;;;32.55;16.37;;;;;;;-1.70;92.32;101186.88;5541095;32;33946;-84
2021/12/13 08:10:33;;;;;;;33.80;16.37;;;;;;;-1.65;92.20;101190.38;5560067;32;35249;-84
2021/12/13 08:13:36;;;;;;;31.80;16.92;;;;;;;-1.59;91.82;101196.53;5531887;32;34149;-84
2021/12/13 08:16:46;;;;;;;29.73;15.88;;;;;;;-1.60;91.89;101203.50;5537501;32;34638;-85
2021/12/13 08:20:00;;;;;;;34.97;17.23;;;;;;;-1.44;91.30;101208.88;5534968;32;34522;-86
2021/12/13 08:23:12;;;;;;;30.73;16.40;;;;;;;-1.44;91.18;101208.88;5538678;32;34082;-86
2021/12/13 08:26:25;;;;;;;37.80;18.23;;;;;;;-1.34;91.33;101207.28;5534665;32;36285;-91
2021/12/13 08:29:33;;;;;;;32.17;16.77;;;;;;;-1.30;91.21;101196.06;5539567;32;35142;-87
2021/12/13 08:32:36;;;;;;;40.30;18.12;;;;;;;-1.12;90.54;101213.63;5547330;32;34576;-86
2021/12/13 08:35:54;;;;;;;32.83;17.33;;;;;;;-0.95;89.92;101206.87;5538530;32;34136;-86
2021/12/13 08:39:18;;;;;;;35.53;17.83;;;;;;;-1.00;90.34;101220.72;5542327;32;35228;-86
2021/12/13 08:42:24;;;;;;;33.03;16.60;;;;;;;-0.80;90.17;101217.47;5540483;32;34042;-86
2021/12/13 08:45:34;;;;;;;32.28;17.85;;;;;;;-0.75;90.24;101224.47;5538567;32;34793;-86
2021/12/13 08:48:50;;;;;;;37.08;17.50;;;;;;;-0.70;90.17;101228.00;5546863;32;34388;-86
2021/12/13 08:52:06;;;;;;;38.60;17.98;;;;;;;-0.65;90.16;101217.66;5545343;32;34448;-86
2021/12/13 08:55:12;;;;;;;35.28;18.30;;;;;;;-0.55;89.79;101227.28;5531464;32;33883;-86
2021/12/13 08:58:18;;;;;;;37.72;18.42;;;;;;;-0.41;89.20;101226.53;5555292;32;33859;-86
2021/12/13 09:01:21;;;;;;;33.00;17.20;;;;;;;-0.28;88.57;101223.22;5540603;32;33943;-86
2021/12/13 09:04:37;;;;;;;34.70;17.00;;;;;;;-0.07;87.89;101208.59;5543574;32;33940;-86
2021/12/13 09:08:10;;;;;;;33.95;18.20;;;;;;;0.02;87.24;101219.94;5545269;32;34703;-85
2021/12/13 09:11:33;;;;;;;32.83;18.02;;;;;;;0.12;87.18;101214.81;5561932;31;34281;-91
2021/12/13 09:14:38;;;;;;;34.30;16.50;;;;;;;0.32;86.48;101210.59;5545168;32;35539;-86
2021/12/13 09:17:41;;;;;;;32.20;17.25;;;;;;;0.47;86.28;101217.63;5548290;32;34273;-85
2021/12/13 09:20:51;;;;;;;32.17;16.90;;;;;;;0.63;85.52;101224.69;5519256;32;33702;-86
2021/12/13 09:23:53;;;;;;;29.73;17.10;;;;;;;0.89;84.42;101218.72;5540701;32;33738;-87
2021/12/13 09:27:08;;;;;;;41.17;16.65;;;;;;;1.38;83.04;101221.47;5547543;32;33763;-87
2021/12/13 09:30:41;;;;;;;29.58;15.85;;;;;;;4.94;67.24;101208.22;5536665;32;34121;-86
2021/12/13 09:33:49;;;;;;;31.10;16.23;;;;;;;9.50;49.87;101203.50;5549356;32;34765;-85
2021/12/13 09:36:55;;;;;;;26.10;16.17;;;;;;;12.72;39.94;101187.72;5534487;32;34380;-86
2021/12/13 09:40:01;;;;;;;29.58;16.55;;;;;;;12.51;40.05;101184.22;5537977;32;34109;-84
2021/12/13 09:43:05;;;;;;;25.55;15.27;;;;;;;14.02;36.36;101177.97;5539926;32;34353;-83
2021/12/13 09:46:11;;;;;;;28.58;16.20;;;;;;;14.38;35.55;101176.09;5549166;32;33674;-83
2021/12/13 09:49:26;;;;;;;25.05;15.27;;;;;;;14.17;35.06;101180.75;5538054;32;34293;-83
2021/12/13 09:52:36;;;;;;;24.73;15.80;;;;;;;15.00;33.76;101179.09;5531150;32;34122;-85
2021/12/13 09:55:42;;;;;;;25.67;15.45;;;;;;;14.33;34.62;101169.31;5545952;32;34522;-84
2021/12/13 09:58:57;;;;;;;25.95;16.65;;;;;;;14.58;34.27;101170.66;5537303;32;34677;-83
2021/12/13 10:02:03;;;;;;;25.02;15.75;;;;;;;14.89;34.18;101161.84;5552028;32;34921;-89
2021/12/13 10:05:12;;;;;;;27.17;16.27;;;;;;;14.02;34.58;101161.97;5550575;32;35211;-85
2021/12/13 10:08:24;;;;;;;26.70;15.65;;;;;;;10.52;41.97;101164.75;5552003;32;34014;-86
2021/12/13 10:11:46;;;;;;;29.23;16.85;;;;;;;7.34;50.32;101169.75;5543299;32;33899;-86
2021/12/13 10:14:56;;;;;;;26.40;16.70;;;;;;;5.98;56.44;101164.53;5535854;32;34114;-86
2021/12/13 10:18:05;;;;;;;28.83;17.00;;;;;;;5.61;58.59;101171.31;5531898;32;34382;-86
2021/12/13 10:21:23;;;;;;;28.98;16.73;;;;;;;5.52;59.46;101169.69;5550946;32;35031;-86
2021/12/13 10:24:34;;;;;;;31.05;17.12;;;;;;;5.02;61.37;101168.69;5543284;32;34152;-86
2021/12/13 10:27:38;;;;;;;33.20;17.27;;;;;;;5.04;62.57;101165.16;5536381;32;34097;-86
2021/12/13 10:30:46;;;;;;;27.50;16.52;;;;;;;4.41;64.08;101154.53;5537269;32;34955;-85
2021/12/13 10:33:49;;;;;;;33.35;17.58;;;;;;;4.43;64.39;101157.16;5545178;32;34218;-86
2021/12/13 10:37:00;;;;;;;25.95;16.62;;;;;;;4.19;65.83;101161.78;5561043;32;35260;-86
2021/12/13 10:40:27;;;;;;;26.98;15.13;;;;;;;4.53;64.87;101165.81;5538524;32;33782;-85
2021/12/13 10:43:37;;;;;;;27.02;16.48;;;;;;;4.45;66.00;101158.00;5550713;32;34250;-85
2021/12/13 10:46:45;;;;;;;26.52;15.57;;;;;;;4.63;64.54;101156.03;5556824;32;34199;-85
2021/12/13 10:49:51;;;;;;;34.85;15.65;;;;;;;4.68;64.68;101157.72;5554499;32;33703;-90
2021/12/13 10:52:54;;;;;;;31.20;15.85;;;;;;;4.47;65.53;101155.37;5555870;32;34521;-86
2021/12/13 10:56:15;;;;;;;28.70;16.30;;;;;;;4.55;65.25;101150.88;5548047;32;34026;-86
2021/12/13 10:59:22;;;;;;;27.27;15.87;;;;;;;4.24;66.26;101149.50;5538676;32;34662;-85
2021/12/13 11:02:31;;;;;;;29.08;15.48;;;;;;;5.14;63.59;101152.75;5543881;32;34848;-85
2021/12/13 11:05:37;;;;;;;32.40;15.93;;;;;;;4.96;63.10;101138.06;5543718;32;34898;-87
2021/12/13 11:08:43;;;;;;;26.95;15.45;;;;;;;4.95;63.44;101146.88;5539450;32;33839;-86
2021/12/13 11:11:52;;;;;;;27.52;15.15;;;;;;;4.68;64.00;101143.72;5538453;32;34762;-85
2021/12/13 11:14:59;;;;;;;25.23;15.30;;;;;;;4.69;69.31;101140.19;5537816;32;34131;-84
2021/12/13 11:18:06;;;;;;;27.52;14.98;;;;;;;6.13;60.06;101141.50;5537683;32;34253;-83
2021/12/13 11:21:20;;;;;;;26.80;15.77;;;;;;;5.61;60.80;101129.19;5542792;32;33805;-84
2021/12/13 11:24:24;;;;;;;30.25;16.10;;;;;;;4.91;62.71;101125.00;5541613;32;34198;-84
2021/12/13 11:27:31;;;;;;;30.23;15.57;;;;;;;4.17;66.01;101139.91;5550563;32;33480;-84
2021/12/13 11:30:36;;;;;;;24.80;15.27;;;;;;;3.92;67.01;101137.53;5541581;32;33760;-83
2021/12/13 11:34:03;;;;;;;23.92;14.27;;;;;;;4.63;65.26;101137.66;5539445;32;34087;-84
2021/12/13 11:37:11;;;;;;;27.50;15.68;;;;;;;5.01;63.62;101143.25;5538972;32;33679;-84
2021/12/13 11:40:52;;;;;;;24.95;14.48;;;;;;;5.02;63.65;101145.87;5545538;32;34292;-84
2021/12/13 11:44:21;;;;;;;28.92;15.13;;;;;;;4.34;66.67;101150.25;5540767;32;34037;-85
2021/12/13 11:47:30;;;;;;;25.12;14.20;;;;;;;4.74;65.61;101148.03;5550703;32;34562;-85
2021/12/13 11:50:54;;;;;;;25.23;15.13;;;;;;;4.85;63.76;101141.75;5559704;32;36220;-86
2021/12/13 11:54:35;;;;;;;29.27;14.40;;;;;;;4.29;65.66;101147.66;5542891;32;34514;-85
2021/12/13 11:58:20;;;;;;;24.27;13.98;;;;;;;3.78;67.26;101154.28;5561980;32;35034;-85
2021/12/13 12:01:53;;;;;;;25.08;13.40;;;;;;;3.94;67.06;101148.91;5491375;32;35029;-86
2021/12/13 12:05:11;;;;;;;24.77;13.77;;;;;;;4.04;66.63;101145.28;5542393;32;35293;-85
2021/12/13 12:08:45;;;;;;;23.50;13.75;;;;;;;3.79;67.68;101142.06;5544097;32;35311;-85
2021/12/13 12:12:13;;;;;;;28.65;15.43;;;;;;;4.16;66.70;101139.06;5547851;32;34763;-86
2021/12/13 12:15:18;;;;;;;25.80;15.07;;;;;;;3.56;68.98;101139.63;5549895;32;34386;-86
2021/12/13 12:18:21;;;;;;;26.45;14.75;;;;;;;3.66;69.39;101145.66;5557045;32;35161;-85
2021/12/13 12:21:38;;;;;;;27.83;15.35;;;;;;;3.68;69.63;101142.16;5560261;32;34900;-85
2021/12/13 12:24:46;;;;;;;26.12;14.48;;;;;;;3.64;69.56;101132.56;5555375;32;34200;-85
2021/12/13 12:27:56;;;;;;;32.80;15.07;;;;;;;3.40;70.66;101142.37;5551166;32;34065;-84
2021/12/13 12:31:00;;;;;;;26.35;14.35;;;;;;;3.74;69.53;101144.72;5549985;32;33973;-84
2021/12/13 12:34:05;;;;;;;28.30;15.13;;;;;;;3.58;69.90;101136.09;5549003;32;34828;-84
2021/12/13 12:37:31;;;;;;;26.92;14.60;;;;;;;3.48;69.97;101137.91;5558367;32;33062;-84
2021/12/13 12:40:46;;;;;;;28.85;16.00;;;;;;;3.55;70.06;101144.00;5552903;32;35789;-86
2021/12/13 12:43:53;;;;;;;25.85;14.27;;;;;;;3.52;70.15;101144.00;5544034;32;34306;-85
2021/12/13 12:46:58;;;;;;;25.45;13.95;;;;;;;3.70;69.34;101136.88;5544493;32;33309;-85
2021/12/13 12:50:15;;;;;;;29.33;14.40;;;;;;;3.61;69.01;101137.81;5549336;32;34143;-87
2021/12/13 12:53:30;;;;;;;26.25;13.57;;;;;;;3.55;69.40;101135.25;5547569;32;34103;-84
2021/12/13 12:57:04;;;;;;;25.85;13.70;;;;;;;3.71;69.05;101135.97;5546826;32;34710;-85
2021/12/13 13:00:08;;;;;;;23.38;13.65;;;;;;;3.39;69.14;101130.12;5543481;32;34764;-86
2021/12/13 13:03:32;;;;;;;24.75;12.37;;;;;;;3.36;69.06;101135.37;5558410;32;35067;-85
2021/12/13 13:06:35;;;;;;;25.00;12.90;;;;;;;3.30;69.18;101135.44;5556634;32;34205;-85
2021/12/13 13:09:49;;;;;;;22.60;12.27;;;;;;;3.26;69.33;101129.34;5557805;32;33682;-86
2021/12/13 13:13:06;;;;;;;24.90;12.77;;;;;;;3.35;68.79;101139.78;5550992;32;34272;-85
2021/12/13 13:16:11;;;;;;;26.27;12.20;;;;;;;3.35;68.77;101139.78;5557408;32;33714;-89
2021/12/13 13:19:32;;;;;;;24.83;11.52;;;;;;;3.27;68.84;101152.06;5560614;32;32736;-90
2021/12/13 13:22:40;;;;;;;23.40;12.10;;;;;;;3.27;68.78;101156.44;5545584;32;34603;-84
2021/12/13 13:26:04;;;;;;;20.65;12.20;;;;;;;3.15;69.47;101154.75;5549419;32;33703;-86
2021/12/13 13:29:14;;;;;;;21.55;11.73;;;;;;;3.09;68.82;101156.56;5540999;32;33786;-85
2021/12/13 13:32:18;;;;;;;21.08;11.57;;;;;;;3.03;69.08;101159.22;5547286;32;34091;-84
2021/12/13 13:35:22;;;;;;;23.80;11.52;;;;;;;2.99;68.96;101169.72;5559595;32;34983;-85
2021/12/13 13:38:41;;;;;;;22.00;12.35;;;;;;;2.93;68.82;101175.87;5570035;32;34552;-85
2021/12/13 13:41:48;;;;;;;18.77;11.52;;;;;;;2.89;69.17;101171.50;5559408;32;35312;-86
2021/12/13 13:44:54;;;;;;;22.45;12.23;;;;;;;2.85;69.55;101181.16;5555737;32;34036;-85
2021/12/13 13:48:05;;;;;;;20.73;11.65;;;;;;;2.85;69.83;101177.66;5549606;32;34324;-87
2021/12/13 13:51:11;;;;;;;21.10;11.77;;;;;;;2.80;70.11;101175.94;5557138;32;34209;-87
2021/12/13 13:54:15;;;;;;;25.98;12.68;;;;;;;2.61;71.14;101184.75;5560222;32;34386;-86
2021/12/13 13:57:26;;;;;;;23.10;11.50;;;;;;;2.85;70.08;101181.16;5565033;32;33709;-86
2021/12/13 14:01:06;;;;;;;21.75;11.70;;;;;;;2.81;69.71;101174.16;5564227;32;35227;-87
2021/12/13 14:04:16;;;;;;;28.33;12.52;;;;;;;2.49;71.25;101188.25;5506026;32;35172;-92
2021/12/13 14:07:26;;;;;;;24.25;12.45;;;;;;;2.48;71.45;101192.66;5535609;32;33828;-87
2021/12/13 14:10:32;;;;;;;27.25;11.85;;;;;;;2.52;71.67;101193.50;5539701;32;34014;-87
2021/12/13 14:13:38;;;;;;;24.42;11.50;;;;;;;2.37;72.18;101187.41;5533613;32;33842;-87
2021/12/13 14:16:56;;;;;;;26.35;12.65;;;;;;;2.19;72.54;101179.59;5534177;32;34584;-87
2021/12/13 14:20:10;;;;;;;23.33;11.57;;;;;;;2.12;72.91;101190.09;5533673;32;34669;-87
2021/12/13 14:23:13;;;;;;;21.98;11.40;;;;;;;2.00;73.56;101190.09;5533648;32;34318;-87
2021/12/13 14:26:26;;;;;;;26.48;12.13;;;;;;;1.95;73.64;101184.88;5535617;32;33882;-87
2021/12/13 14:29:29;;;;;;;24.83;12.20;;;;;;;1.90;74.13;101196.25;5545531;32;35500;-86
2021/12/13 14:32:32;;;;;;;22.27;11.93;;;;;;;1.88;74.33;101186.63;5554719;32;34048;-88
2021/12/13 14:35:36;;;;;;;20.77;11.68;;;;;;;1.77;74.86;101192.75;5558659;32;34054;-88
2021/12/13 14:38:42;;;;;;;21.90;11.52;;;;;;;1.74;74.94;101199.72;5558270;32;34927;-87
2021/12/13 14:42:10;;;;;;;25.65;11.93;;;;;;;1.69;75.06;101200.56;5544335;32;33894;-87
2021/12/13 14:45:16;;;;;;;21.27;11.82;;;;;;;1.60;75.56;101202.31;5533839;32;34250;-88
2021/12/13 14:48:24;;;;;;;25.70;11.85;;;;;;;1.59;76.20;101197.09;5536077;32;34601;-87
2021/12/13 14:51:27;;;;;;;21.25;11.15;;;;;;;1.53;76.42;101195.34;5536489;32;34480;-86
2021/12/13 14:54:32;;;;;;;21.75;12.30;;;;;;;1.42;77.02;101197.97;5541013;32;34078;-87
2021/12/13 14:57:35;;;;;;;22.98;12.20;;;;;;;1.44;77.56;101203.16;5555808;32;34224;-87
2021/12/13 15:00:44;;;;;;;26.25;13.15;;;;;;;1.37;78.00;101202.31;5566166;32;34381;-87
2021/12/13 15:04:04;;;;;;;24.27;13.35;;;;;;;1.22;79.07;101200.53;5569882;32;34273;-91
2021/12/13 15:07:17;;;;;;;27.80;14.07;;;;;;;1.16;79.92;101206.59;5554738;32;33867;-87
2021/12/13 15:10:25;;;;;;;29.63;14.80;;;;;;;1.14;80.34;101217.91;5544266;32;35290;-87
2021/12/13 15:13:31;;;;;;;31.25;14.93;;;;;;;1.09;80.94;101217.91;5544920;32;35652;-87
2021/12/13 15:16:38;;;;;;;29.77;15.68;;;;;;;1.02;81.57;101235.31;5553405;32;35151;-87
2021/12/13 15:19:40;;;;;;;28.12;14.77;;;;;;;0.98;82.55;101235.28;5555133;32;34272;-89
2021/12/13 15:22:50;;;;;;;26.87;15.00;;;;;;;1.02;82.72;101234.44;5551473;32;34098;-89
2021/12/13 15:26:07;;;;;;;29.00;16.03;;;;;;;0.96;83.47;101240.53;5540817;32;33764;-88
2021/12/13 15:29:23;;;;;;;30.20;16.62;;;;;;;0.89;84.27;101239.63;5554263;32;33926;-86
2021/12/13 15:32:27;;;;;;;32.53;16.12;;;;;;;0.83;84.74;101244.81;5545695;32;34530;-87
2021/12/13 15:35:33;;;;;;;34.50;16.75;;;;;;;0.91;84.87;101250.94;5546434;32;34622;-87
2021/12/13 15:38:37;;;;;;;36.88;18.10;;;;;;;0.76;85.93;101256.09;5548046;32;34088;-87
2021/12/13 15:41:42;;;;;;;33.13;17.27;;;;;;;0.70;86.53;101258.69;5541834;32;34153;-87
2021/12/13 15:44:50;;;;;;;33.53;17.87;;;;;;;0.65;87.37;101256.91;5530219;32;35283;-87
2021/12/13 15:51:52;;;;;;;34.88;18.45;;;;;;;0.60;88.65;101253.38;5550080;32;33604;-87
2021/12/13 15:54:58;;;;;;;34.90;18.50;;;;;;;0.58;89.08;101256.84;5550968;32;33929;-87
2021/12/13 15:58:17;;;;;;;35.58;19.08;;;;;;;0.50;89.68;101259.44;5549859;32;33820;-86
2021/12/13 16:01:19;;;;;;;33.33;18.52;;;;;;;0.54;90.04;101263.81;5554973;32;34409;-86
2021/12/13 16:04:36;;;;;;;40.95;19.58;;;;;;;0.49;90.07;101266.38;5545292;32;34212;-86
2021/12/13 16:07:42;;;;;;;35.08;19.60;;;;;;;0.55;90.56;101268.16;5534219;32;34511;-87
2021/12/13 16:10:45;;;;;;;36.30;19.73;;;;;;;0.48;91.21;101264.66;5531408;32;33925;-87
2021/12/13 16:13:48;;;;;;;36.75;19.08;;;;;;;0.43;91.50;101262.84;5530979;32;35388;-86
2021/12/13 16:17:08;;;;;;;38.35;20.25;;;;;;;0.40;91.90;101269.81;5533495;32;33900;-86
2021/12/13 16:20:17;;;;;;;38.40;20.50;;;;;;;0.38;92.27;101273.28;5533391;32;35426;-86
2021/12/13 16:23:25;;;;;;;36.70;19.65;;;;;;;0.34;92.63;101266.28;5536074;32;34139;-86
2021/12/13 16:26:32;;;;;;;41.15;20.42;;;;;;;0.31;92.97;101268.88;5541182;32;34123;-87
2021/12/13 16:29:38;;;;;;;38.22;20.17;;;;;;;0.29;93.30;101279.28;5536084;32;33724;-87
2021/12/13 16:32:41;;;;;;;38.17;20.12;;;;;;;0.21;93.66;101278.38;5532765;32;34930;-87
2021/12/13 16:35:49;;;;;;;36.20;20.80;;;;;;;0.23;93.99;101272.31;5534189;32;33967;-87
2021/12/13 16:39:01;;;;;;;37.08;20.45;;;;;;;0.26;94.13;101276.69;5532991;32;33852;-86
2021/12/13 16:42:10;;;;;;;37.85;19.95;;;;;;;0.22;94.40;101283.63;5532167;32;34011;-86
2021/12/13 16:45:13;;;;;;;40.40;20.98;;;;;;;0.23;94.54;101282.75;5531315;32;33696;-86
2021/12/13 16:48:23;;;;;;;37.15;21.02;;;;;;;0.23;95.07;101284.47;5533425;32;34752;-86
